• Join FlightAware (Why Join?)
  • Login
  • US Flag 
Trick or treat! (Boo!!) 
11:56AM EDT


 

Airport Tracker/Info


-or-


 

Live Flight TrackerFlight Track Log ✈ AKX1695 ✈ 20-Sep-2013 ✈ RJOO / ITM - RJSF / FKS

Flight Track Log - Related Links

Times and Time Zones

All times are in EDT time to prevent confusion due to time zone crossing. See the AKX1695 flight status page for this flight to view local times or setup timezone preferences in your user account.

Time Position Orientation Groundspeed Altitude Reporting Facility
EDT Latitude Longitude Course Direction KTS MPH feet Rate Location/Type
01:56AM 34.9290 135.7123 57° Northeast  Level Estimated
01:57AM 34.9767 135.8039 58° Northeast  Level Estimated
01:58AM 35.0243 135.8956 58° Northeast  Level Estimated
01:59AM 35.0718 135.9874 58° Northeast  Level Estimated
02:00AM 35.1193 136.0793 58° Northeast  Level Estimated
02:01AM 35.1667 136.1713 58° Northeast  Level Estimated
02:02AM 35.2141 136.2634 58° Northeast  Level Estimated
02:03AM 35.2613 136.3557 58° Northeast  Level Estimated
02:04AM 35.3085 136.4480 58° Northeast  Level Estimated
02:05AM 35.3557 136.5404 58° Northeast  Level Estimated
02:06AM 35.4027 136.6330 58° Northeast  Level Estimated
02:07AM 35.4497 136.7256 58° Northeast  Level Estimated
02:08AM 35.4966 136.8184 58° Northeast  Level Estimated
02:09AM 35.5435 136.9113 58° Northeast  Level Estimated
02:10AM 35.5902 137.0042 58° Northeast  Level Estimated
02:11AM 35.6370 137.0973 58° Northeast  Level Estimated
02:12AM 35.6836 137.1905 58° Northeast  Level Estimated
02:13AM 35.7301 137.2838 58° Northeast  Level Estimated
02:14AM 35.7766 137.3773 58° Northeast  Level Estimated
02:15AM 35.8230 137.4708 59° Northeast  Level Estimated
02:16AM 35.8694 137.5644 59° Northeast  Level Estimated
02:17AM 35.9156 137.6582 59° Northeast  Level Estimated
02:18AM 35.9618 137.7520 59° Northeast  Level Estimated
02:19AM 36.0080 137.8460 59° Northeast  Level Estimated
02:20AM 36.0540 137.9400 59° Northeast  Level Estimated
02:21AM 36.1000 138.0342 59° Northeast  Level Estimated
02:22AM 36.1459 138.1285 59° Northeast  Level Estimated
02:23AM 36.1917 138.2229 59° Northeast  Level Estimated
02:24AM 36.2375 138.3174 59° Northeast  Level Estimated
02:25AM 36.2832 138.4121 59° Northeast  Level Estimated
02:26AM 36.3288 138.5068 59° Northeast  Level Estimated
02:27AM 36.3743 138.6017 59° Northeast  Level Estimated
02:28AM 36.4197 138.6966 59° Northeast  Level Estimated
02:29AM 36.4651 138.7917 59° Northeast  Level Estimated
02:30AM 36.5104 138.8869 59° Northeast  Level Estimated
02:31AM 36.5556 138.9821 59° Northeast  Level Estimated
02:32AM 36.6008 139.0775 59° Northeast  Level Estimated
02:33AM 36.6459 139.1731 60° Northeast  Level Estimated
02:34AM 36.6909 139.2687 60° Northeast  Level Estimated
02:35AM 36.7358 139.3644 60° Northeast  Level Estimated
02:36AM 36.7807 139.4603 60° Northeast  Level Estimated
02:37AM 36.8254 139.5562 60° Northeast  Level Estimated
02:38AM 36.8701 139.6523 60° Northeast  Level Estimated
02:39AM 36.9147 139.7485 60° Northeast  Level Estimated
02:40AM 36.9593 139.8448 60° Northeast  Level Estimated
02:41AM 37.0037 139.9412 60° Northeast  Level Estimated
02:42AM 37.0481 140.0377 60° Northeast  Level Estimated
02:43AM 37.0924 140.1344 60° Northeast  Level Estimated
02:44AM 37.1366 140.2311 60° Northeast  Level Estimated
02:45AM 37.1808 140.3280 60° Northeast  Level Estimated
02:46AM 37.2248 140.4250 60° Northeast  Level Estimated
02:47AM 37.2274 140.4307 60° Northeast  Level Estimated
02:48AM 37.2274 140.4307 302° West  Level Estimated
02:49AM 37.2274 140.4307 302° West  Level Estimated
02:50AM 37.2274 140.4307 302° West  Level Estimated
02:51AM 37.2274 140.4307 302° West  Level Estimated
02:52AM 37.2274 140.4307 302° West  Level Estimated
02:53AM 37.2274 140.4307 302° West  Level Estimated
02:54AM 37.2274 140.4307 302° West  Level Estimated
02:55AM 37.2274 140.4307 302° West  Level Estimated
02:56AM 37.2274 140.4307 302° West  Level Estimated
02:57AM 37.2274 140.4307 302° West  Level Estimated
02:58AM 37.2274 140.4307 302° West  Level Estimated
02:59AM 37.2274 140.4307 302° West  Level Estimated